Time;durP1;ratioP1;P1;durP2;ratioP2;P2;SDS_P1;SDS_P2;PMS_P1;PMS_P2;Temp;Humidity;BMP_temperature;BMP_pressure;BME280_temperature;BME280_humidity;BME280_pressure;Samples;Min_cycle;Max_cycle;Signal;HPM_P1;HPM_P2
2023/08/01 00:00:31;;;;;;;11.20;3.80;;;27.80;69.40;;;;;;6215864;23;19997;-72
2023/08/01 00:50:12;;;;;;;18.30;5.60;;;27.50;74.90;;;;;;6215557;23;20096;-83
2023/08/01 00:52:37;;;;;;;20.88;5.90;;;27.50;75.90;;;;;;6214732;23;20063;-83
2023/08/01 00:55:03;;;;;;;16.65;5.32;;;27.40;76.90;;;;;;6214608;23;20264;-83
2023/08/01 00:57:29;;;;;;;18.75;5.80;;;27.40;77.30;;;;;;6214546;23;20055;-83
2023/08/01 00:59:56;;;;;;;20.80;5.13;;;27.30;77.20;;;;;;6215803;23;20008;-83
2023/08/01 01:02:22;;;;;;;19.00;5.35;;;27.30;78.30;;;;;;6215041;23;20060;-84
2023/08/01 01:04:48;;;;;;;20.98;5.50;;;27.30;78.30;;;;;;6214771;23;20001;-84
2023/08/01 01:07:15;;;;;;;19.30;5.15;;;27.30;78.10;;;;;;6214477;23;20330;-85
2023/08/01 01:09:41;;;;;;;14.05;5.00;;;27.30;78.50;;;;;;6214279;23;19996;-83
2023/08/01 01:12:07;;;;;;;21.15;5.10;;;27.30;78.50;;;;;;6214406;23;20009;-84
2023/08/01 01:14:33;;;;;;;20.25;5.38;;;27.30;78.70;;;;;;6214505;23;20004;-84
2023/08/01 01:16:59;;;;;;;24.63;5.95;;;27.30;78.90;;;;;;6214419;23;20039;-81
2023/08/01 01:19:25;;;;;;;19.52;5.30;;;27.30;79.10;;;;;;6214574;23;20006;-82
2023/08/01 01:21:51;;;;;;;20.33;5.47;;;27.20;79.10;;;;;;6219821;23;20001;-84
2023/08/01 01:24:19;;;;;;;20.30;5.60;;;27.30;79.40;;;;;;6218048;23;20011;-84
2023/08/01 01:26:46;;;;;;;21.95;5.63;;;27.30;79.30;;;;;;6214392;23;20012;-82
2023/08/01 01:29:12;;;;;;;24.38;5.35;;;27.30;79.60;;;;;;6214008;23;19997;-83
2023/08/01 01:31:38;;;;;;;16.63;5.07;;;27.30;79.60;;;;;;6213773;23;20038;-84
2023/08/01 01:34:04;;;;;;;23.25;5.43;;;27.30;79.30;;;;;;6214273;23;20062;-83
2023/08/01 01:36:30;;;;;;;17.58;5.72;;;27.30;79.40;;;;;;6214338;23;20375;-84
2023/08/01 01:38:56;;;;;;;21.38;5.32;;;27.30;80.00;;;;;;6214499;23;20107;-84
2023/08/01 01:41:22;;;;;;;19.17;5.55;;;27.30;79.20;;;;;;6214112;23;20004;-84
2023/08/01 01:43:48;;;;;;;21.80;5.32;;;27.30;79.10;;;;;;6214009;23;20000;-84
2023/08/01 01:46:14;;;;;;;21.27;5.97;;;27.20;78.80;;;;;;6214690;23;20000;-84
2023/08/01 01:48:39;;;;;;;20.75;5.88;;;27.30;79.30;;;;;;6218716;23;19997;-83
2023/08/01 01:51:05;;;;;;;25.77;6.03;;;27.30;79.50;;;;;;6217307;23;20013;-83
2023/08/01 01:53:31;;;;;;;18.50;5.15;;;27.30;79.60;;;;;;6228497;23;20027;-83
2023/08/01 01:55:56;;;;;;;21.02;5.90;;;27.30;79.60;;;;;;6224407;23;20308;-83
2023/08/01 01:58:22;;;;;;;24.27;6.10;;;27.20;79.50;;;;;;6192821;23;20024;-81
2023/08/01 02:00:49;;;;;;;20.02;5.20;;;27.20;80.40;;;;;;6218453;23;20001;-83
2023/08/01 02:03:14;;;;;;;24.52;6.15;;;27.20;80.00;;;;;;6214126;23;20044;-83
2023/08/01 02:05:41;;;;;;;21.98;5.47;;;27.10;80.20;;;;;;6214856;23;20414;-83
2023/08/01 02:08:06;;;;;;;19.95;5.78;;;27.10;80.40;;;;;;6214450;23;20387;-84
2023/08/01 02:10:32;;;;;;;20.70;5.85;;;27.10;80.30;;;;;;6214012;23;19996;-83
2023/08/01 02:12:58;;;;;;;20.13;6.05;;;27.10;80.40;;;;;;6214042;23;20008;-84
2023/08/01 02:15:24;;;;;;;21.85;6.53;;;27.10;80.20;;;;;;6214075;23;20169;-83
2023/08/01 02:17:50;;;;;;;19.77;6.05;;;27.10;80.60;;;;;;6214318;23;20080;-84
2023/08/01 02:20:16;;;;;;;25.17;5.40;;;27.00;80.80;;;;;;6216483;23;20001;-83
2023/08/01 02:22:41;;;;;;;25.42;5.97;;;27.00;80.80;;;;;;6214015;23;20103;-83
2023/08/01 02:25:07;;;;;;;17.92;5.63;;;27.00;80.70;;;;;;6213833;23;20000;-83
2023/08/01 02:27:33;;;;;;;24.75;5.47;;;27.00;81.20;;;;;;6213655;23;20001;-84
2023/08/01 02:29:59;;;;;;;29.27;6.40;;;27.00;81.20;;;;;;6213835;23;20088;-84
2023/08/01 02:32:24;;;;;;;27.80;5.97;;;26.90;81.50;;;;;;6213941;23;20016;-84
2023/08/01 02:34:50;;;;;;;20.65;5.50;;;26.90;81.70;;;;;;6215059;23;20008;-84
2023/08/01 02:37:16;;;;;;;23.77;5.65;;;26.90;81.70;;;;;;6213835;23;20001;-84
2023/08/01 02:39:41;;;;;;;24.33;6.60;;;26.80;81.90;;;;;;6213662;23;20391;-83
2023/08/01 02:42:08;;;;;;;30.23;6.00;;;26.80;82.40;;;;;;6213597;23;20009;-83
2023/08/01 02:44:34;;;;;;;25.55;5.72;;;26.80;82.50;;;;;;6213606;23;20040;-83
2023/08/01 02:46:59;;;;;;;23.67;5.25;;;26.80;82.70;;;;;;6213648;23;20001;-84
2023/08/01 02:49:25;;;;;;;22.63;6.20;;;26.80;82.70;;;;;;6213365;23;20011;-84
2023/08/01 02:51:51;;;;;;;26.90;5.97;;;26.80;82.80;;;;;;6214145;23;20453;-85
2023/08/01 02:54:16;;;;;;;19.08;5.13;;;26.80;83.00;;;;;;6213729;23;19997;-84
2023/08/01 02:56:42;;;;;;;26.98;6.75;;;26.80;82.90;;;;;;6213837;23;20004;-83
2023/08/01 02:59:08;;;;;;;22.40;6.20;;;26.80;83.40;;;;;;6214089;23;20023;-84
2023/08/01 03:01:38;;;;;;;27.13;5.90;;;26.70;83.50;;;;;;6217117;23;20006;-84
2023/08/01 03:04:06;;;;;;;19.90;5.50;;;26.80;83.50;;;;;;6215280;23;20092;-83
2023/08/01 03:06:32;;;;;;;23.42;5.60;;;26.80;83.40;;;;;;6213873;23;20137;-82
2023/08/01 03:08:58;;;;;;;21.45;5.13;;;26.70;83.50;;;;;;6213589;23;20001;-85
2023/08/01 03:11:24;;;;;;;15.93;4.90;;;26.70;83.80;;;;;;6213493;23;20384;-84
2023/08/01 03:13:50;;;;;;;24.23;6.03;;;26.70;83.80;;;;;;6213953;23;19997;-84
2023/08/01 03:16:16;;;;;;;27.27;5.80;;;26.70;84.00;;;;;;6213290;23;20312;-85
2023/08/01 03:18:42;;;;;;;26.88;5.32;;;26.70;84.00;;;;;;6220044;23;20024;-84
2023/08/01 03:21:09;;;;;;;23.27;6.70;;;26.70;84.50;;;;;;6226684;23;20304;-83
2023/08/01 03:23:34;;;;;;;25.20;6.20;;;26.70;84.50;;;;;;6225601;23;20035;-83
2023/08/01 03:26:00;;;;;;;26.02;5.70;;;26.70;84.40;;;;;;6219370;23;20001;-84
2023/08/01 03:28:26;;;;;;;23.98;5.78;;;26.70;84.70;;;;;;6213942;23;20051;-84
2023/08/01 03:30:53;;;;;;;31.55;6.65;;;26.70;84.70;;;;;;6214156;23;19997;-84
2023/08/01 03:33:20;;;;;;;25.65;6.30;;;26.70;84.70;;;;;;6214102;23;20149;-84
2023/08/01 03:35:46;;;;;;;29.80;6.30;;;26.70;84.50;;;;;;6213936;23;20012;-85
2023/08/01 03:38:12;;;;;;;29.65;6.85;;;26.70;84.70;;;;;;6216022;23;20053;-83
2023/08/01 03:40:38;;;;;;;24.83;5.88;;;26.70;85.00;;;;;;6214231;23;20351;-84
2023/08/01 03:43:04;;;;;;;25.70;6.80;;;26.60;85.20;;;;;;6213743;23;20012;-83
2023/08/01 03:45:30;;;;;;;25.70;6.60;;;26.50;85.50;;;;;;6213787;23;20285;-84
2023/08/01 03:47:56;;;;;;;27.45;6.25;;;26.50;85.60;;;;;;6213442;23;20008;-83
2023/08/01 03:50:21;;;;;;;18.45;5.35;;;26.50;85.50;;;;;;6213324;23;20004;-86
2023/08/01 03:52:47;;;;;;;26.90;5.82;;;26.60;85.30;;;;;;6213716;23;20023;-84
2023/08/01 03:55:13;;;;;;;22.35;6.07;;;26.60;85.20;;;;;;6213325;23;20387;-84
2023/08/01 03:57:39;;;;;;;23.67;5.72;;;26.60;85.50;;;;;;6213429;23;20012;-84
2023/08/01 04:00:12;;;;;;;21.20;5.32;;;26.50;85.40;;;;;;6213404;23;20016;-85
2023/08/01 04:02:39;;;;;;;24.67;6.28;;;26.50;85.60;;;;;;6213577;23;20017;-84
2023/08/01 04:05:05;;;;;;;23.50;5.93;;;26.50;85.40;;;;;;6213402;23;20012;-83
2023/08/01 04:07:32;;;;;;;25.40;6.93;;;26.50;85.90;;;;;;6213116;23;20366;-83
2023/08/01 04:09:58;;;;;;;28.70;6.20;;;26.50;85.60;;;;;;6213448;23;20040;-83
2023/08/01 04:12:24;;;;;;;27.75;7.55;;;26.50;85.60;;;;;;6214855;23;20430;-85
2023/08/01 04:14:49;;;;;;;24.10;6.82;;;26.50;85.70;;;;;;6227510;23;20027;-84
2023/08/01 04:17:15;;;;;;;22.02;6.43;;;26.50;85.70;;;;;;6226164;23;20003;-84
2023/08/01 04:19:41;;;;;;;23.55;5.65;;;26.50;85.70;;;;;;6216064;23;20333;-83
2023/08/01 04:22:08;;;;;;;24.48;6.25;;;26.50;85.80;;;;;;6214941;23;20339;-84
2023/08/01 04:24:34;;;;;;;30.63;7.30;;;26.40;86.00;;;;;;6215477;23;20004;-85
2023/08/01 04:27:00;;;;;;;24.60;6.75;;;26.40;86.00;;;;;;6215925;23;20004;-85
2023/08/01 04:29:25;;;;;;;21.42;5.90;;;26.40;86.10;;;;;;6215069;23;20023;-85
2023/08/01 04:31:51;;;;;;;21.73;6.15;;;26.50;85.90;;;;;;6215527;23;20015;-85
2023/08/01 04:34:18;;;;;;;23.30;5.65;;;26.50;86.00;;;;;;6214957;23;20343;-85
2023/08/01 04:36:44;;;;;;;28.63;6.38;;;26.40;86.00;;;;;;6215319;23;20336;-84
2023/08/01 04:39:09;;;;;;;28.75;6.57;;;26.50;86.00;;;;;;6215220;23;20035;-85
2023/08/01 04:41:35;;;;;;;20.30;5.20;;;26.40;86.00;;;;;;6215789;23;20342;-86
2023/08/01 04:44:01;;;;;;;25.17;6.65;;;26.50;86.30;;;;;;6221496;23;20000;-84
2023/08/01 04:46:26;;;;;;;21.98;6.43;;;26.40;86.00;;;;;;6230322;23;19996;-82
2023/08/01 04:48:52;;;;;;;25.67;6.75;;;26.50;86.10;;;;;;6192392;23;20095;-85
2023/08/01 04:51:17;;;;;;;26.08;6.20;;;26.50;85.90;;;;;;6215962;23;20000;-85
2023/08/01 04:53:43;;;;;;;27.90;6.38;;;26.50;86.00;;;;;;6216294;23;20004;-85
2023/08/01 04:56:09;;;;;;;22.10;5.35;;;26.50;86.10;;;;;;6191202;23;20017;-86
2023/08/01 04:58:34;;;;;;;32.33;6.75;;;26.60;85.90;;;;;;6217447;23;20016;-85
2023/08/01 05:01:00;;;;;;;22.85;6.25;;;26.60;85.60;;;;;;6215438;23;20392;-86
2023/08/01 05:03:26;;;;;;;24.05;6.28;;;26.60;85.70;;;;;;6214839;23;20016;-85
2023/08/01 05:05:51;;;;;;;23.98;6.55;;;26.60;85.90;;;;;;6214853;23;20013;-85
2023/08/01 05:08:17;;;;;;;26.20;6.20;;;26.60;86.00;;;;;;6214777;23;20336;-85
2023/08/01 05:10:43;;;;;;;24.40;5.85;;;26.60;85.60;;;;;;6215084;23;20013;-85
2023/08/01 05:13:08;;;;;;;21.92;5.97;;;26.70;85.40;;;;;;6214692;23;20343;-85
2023/08/01 05:15:34;;;;;;;17.77;5.45;;;26.70;84.80;;;;;;6188128;23;20009;-86
2023/08/01 05:18:00;;;;;;;23.92;6.60;;;26.80;84.90;;;;;;6215100;23;20000;-86
2023/08/01 05:20:30;;;;;;;24.33;6.43;;;26.80;84.90;;;;;;6188862;23;20048;-86
2023/08/01 05:22:57;;;;;;;28.40;6.95;;;26.90;84.70;;;;;;6215335;23;20012;-86
2023/08/01 05:25:22;;;;;;;27.92;6.68;;;27.00;84.00;;;;;;6214559;23;20340;-85
2023/08/01 05:27:48;;;;;;;28.35;7.53;;;27.20;83.80;;;;;;6216351;23;19997;-86
2023/08/01 05:30:14;;;;;;;24.77;6.75;;;27.40;83.10;;;;;;6217492;23;20000;-86
2023/08/01 05:32:40;;;;;;;26.48;6.68;;;27.70;82.20;;;;;;6216998;23;20008;-87
2023/08/01 05:35:07;;;;;;;23.83;6.85;;;28.00;81.40;;;;;;6223560;23;20004;-85
2023/08/01 05:37:32;;;;;;;22.88;6.57;;;28.20;80.80;;;;;;6216298;23;20000;-86
2023/08/01 05:39:58;;;;;;;21.60;6.35;;;28.40;80.10;;;;;;6214068;23;20080;-83
2023/08/01 05:42:24;;;;;;;28.55;6.32;;;28.70;79.50;;;;;;6213448;23;20394;-85
2023/08/01 05:44:49;;;;;;;22.77;6.80;;;29.00;78.40;;;;;;6211267;23;20058;-85
2023/08/01 05:47:15;;;;;;;17.83;5.93;;;29.30;77.60;;;;;;6209058;23;20187;-78
2023/08/01 05:49:41;;;;;;;26.90;7.05;;;29.40;77.00;;;;;;6211302;23;20012;-78
2023/08/01 05:52:07;;;;;;;25.50;6.30;;;29.60;76.70;;;;;;6213401;23;20010;-80
2023/08/01 05:54:33;;;;;;;22.58;5.90;;;29.90;75.60;;;;;;6214122;23;19996;-78
2023/08/01 05:56:58;;;;;;;29.50;6.15;;;30.10;75.00;;;;;;6213830;23;20055;-78
2023/08/01 05:59:24;;;;;;;30.35;6.50;;;30.30;74.40;;;;;;6213853;23;20001;-79
2023/08/01 06:01:50;;;;;;;24.73;6.20;;;30.60;73.80;;;;;;6213813;23;20011;-75
2023/08/01 06:04:15;;;;;;;20.42;6.40;;;30.80;72.90;;;;;;6213545;23;20012;-80
2023/08/01 06:06:41;;;;;;;24.60;6.43;;;30.90;72.40;;;;;;6215870;23;20009;-77
2023/08/01 06:09:07;;;;;;;19.95;5.53;;;31.10;71.90;;;;;;6214236;23;20027;-77
2023/08/01 06:11:33;;;;;;;21.73;6.13;;;31.20;71.20;;;;;;6213775;23;20051;-75
2023/08/01 06:13:59;;;;;;;20.05;5.90;;;31.50;70.60;;;;;;6213313;23;20000;-76
2023/08/01 06:16:25;;;;;;;20.75;5.35;;;31.50;70.00;;;;;;6213579;23;20072;-77
2023/08/01 06:18:50;;;;;;;22.05;6.05;;;31.70;69.70;;;;;;6213547;23;20007;-77
2023/08/01 06:21:16;;;;;;;21.98;6.15;;;31.80;69.30;;;;;;6213490;23;20445;-77
2023/08/01 06:23:42;;;;;;;18.80;5.97;;;31.90;68.90;;;;;;6186803;23;20310;-78
2023/08/01 06:26:07;;;;;;;24.38;5.65;;;32.10;68.30;;;;;;6213512;23;20004;-77
2023/08/01 06:28:33;;;;;;;23.10;6.47;;;32.20;67.80;;;;;;6213374;23;20431;-80
2023/08/01 06:30:59;;;;;;;19.05;5.18;;;32.30;67.20;;;;;;6213409;23;20001;-78
2023/08/01 06:33:24;;;;;;;20.75;5.90;;;32.30;67.40;;;;;;6213390;23;20075;-78
2023/08/01 06:35:50;;;;;;;21.33;6.38;;;32.40;66.90;;;;;;6213628;23;20024;-76
2023/08/01 06:38:16;;;;;;;22.50;5.50;;;32.50;66.20;;;;;;6213445;23;20047;-78
2023/08/01 06:40:41;;;;;;;18.88;6.13;;;32.70;66.00;;;;;;6215097;23;20091;-78
2023/08/01 06:43:07;;;;;;;23.33;6.43;;;32.80;65.40;;;;;;6215590;23;20020;-78
2023/08/01 06:45:33;;;;;;;24.58;7.10;;;33.00;64.80;;;;;;6213965;23;20110;-79
2023/08/01 06:47:58;;;;;;;24.88;7.95;;;33.00;64.50;;;;;;6186787;23;20090;-81
2023/08/01 06:50:24;;;;;;;20.50;6.40;;;33.00;63.90;;;;;;6213551;23;20001;-79
2023/08/01 06:52:50;;;;;;;22.38;7.15;;;33.10;63.80;;;;;;6213838;23;20024;-79
2023/08/01 06:55:15;;;;;;;21.38;6.85;;;33.20;63.40;;;;;;6213516;23;20068;-77
2023/08/01 06:57:41;;;;;;;31.52;8.27;;;33.30;63.40;;;;;;6186900;23;20088;-86
2023/08/01 07:00:07;;;;;;;24.02;6.60;;;33.30;62.20;;;;;;6213760;23;20071;-82
2023/08/01 07:02:33;;;;;;;22.88;6.57;;;33.20;62.60;;;;;;6214034;23;20063;-84
2023/08/01 07:04:59;;;;;;;27.27;7.45;;;33.20;63.00;;;;;;6213786;23;20385;-82
2023/08/01 07:07:24;;;;;;;22.88;6.30;;;33.20;62.30;;;;;;6213693;23;20000;-82
2023/08/01 07:09:50;;;;;;;19.98;6.63;;;33.30;62.20;;;;;;6217448;23;20430;-81
2023/08/01 07:12:16;;;;;;;21.15;7.65;;;33.40;62.00;;;;;;6213781;23;20025;-82
2023/08/01 07:14:42;;;;;;;21.63;6.90;;;33.40;61.60;;;;;;6213958;23;20064;-83
2023/08/01 07:17:08;;;;;;;22.42;6.85;;;33.40;61.70;;;;;;6187040;23;20008;-82
2023/08/01 07:19:33;;;;;;;21.42;6.25;;;33.40;61.70;;;;;;6214102;23;20007;-83
2023/08/01 07:21:59;;;;;;;26.90;6.40;;;33.30;61.70;;;;;;6214415;23;20339;-83
2023/08/01 07:24:25;;;;;;;18.92;5.80;;;33.30;61.50;;;;;;6213920;23;20095;-83
2023/08/01 07:26:51;;;;;;;18.70;6.45;;;33.30;61.40;;;;;;6214167;23;20005;-81
2023/08/01 07:29:17;;;;;;;22.73;6.40;;;33.40;61.10;;;;;;6214081;23;20001;-83
2023/08/01 07:31:43;;;;;;;17.25;5.38;;;33.40;60.70;;;;;;6213817;23;20023;-82
2023/08/01 07:34:08;;;;;;;22.85;7.13;;;33.50;60.60;;;;;;6215365;23;20083;-82
2023/08/01 07:36:34;;;;;;;21.05;6.50;;;33.40;60.30;;;;;;6218892;23;20007;-82
2023/08/01 07:39:00;;;;;;;18.67;6.15;;;33.40;60.60;;;;;;6214176;23;20024;-80
2023/08/01 07:41:26;;;;;;;15.02;5.50;;;33.40;60.20;;;;;;6214032;23;20419;-82
2023/08/01 07:43:52;;;;;;;19.38;6.28;;;33.50;60.10;;;;;;6187244;23;20044;-81
2023/08/01 07:46:17;;;;;;;18.83;5.95;;;33.60;59.80;;;;;;6213789;23;20007;-81
2023/08/01 07:48:43;;;;;;;19.23;6.70;;;33.50;59.30;;;;;;6213567;23;20062;-81
2023/08/01 07:51:11;;;;;;;15.00;5.95;;;33.50;59.20;;;;;;6214453;23;20000;-81
2023/08/01 07:53:36;;;;;;;17.25;6.75;;;33.50;58.90;;;;;;6216157;23;20017;-84
2023/08/01 07:56:02;;;;;;;21.27;6.50;;;33.50;58.70;;;;;;6216535;23;20394;-82
2023/08/01 07:58:29;;;;;;;15.32;5.88;;;33.40;58.60;;;;;;6215342;23;20012;-82
2023/08/01 08:00:55;;;;;;;18.63;6.68;;;33.30;58.50;;;;;;6215116;23;19996;-81
2023/08/01 08:03:23;;;;;;;19.77;7.50;;;33.00;58.90;;;;;;6215350;23;20028;-80
2023/08/01 08:05:49;;;;;;;18.80;5.43;;;32.90;59.00;;;;;;6215184;23;20439;-82
2023/08/01 08:08:15;;;;;;;14.32;4.97;;;32.80;58.90;;;;;;6215324;23;20007;-82
2023/08/01 08:10:40;;;;;;;13.93;4.65;;;32.60;58.90;;;;;;6215388;23;20083;-82
2023/08/01 08:13:06;;;;;;;14.45;5.28;;;32.60;59.10;;;;;;6215183;23;20052;-81
2023/08/01 08:15:34;;;;;;;13.95;5.65;;;32.60;58.90;;;;;;6214935;23;20028;-82
2023/08/01 08:18:03;;;;;;;13.57;5.05;;;32.50;58.40;;;;;;6215580;23;20335;-82
2023/08/01 08:20:29;;;;;;;13.60;5.47;;;32.50;58.10;;;;;;6215766;23;19996;-81
2023/08/01 08:22:55;;;;;;;12.20;5.22;;;32.50;57.90;;;;;;6214957;23;20004;-83
2023/08/01 08:25:21;;;;;;;17.85;6.25;;;32.40;57.70;;;;;;6215834;23;20004;-81
2023/08/01 08:27:48;;;;;;;15.30;5.07;;;32.40;57.30;;;;;;6216080;23;20102;-85
2023/08/01 08:30:14;;;;;;;12.30;5.22;;;32.30;57.20;;;;;;6214955;23;20331;-81
2023/08/01 08:32:39;;;;;;;17.52;6.43;;;32.30;56.90;;;;;;6215595;23;20063;-82
2023/08/01 08:35:05;;;;;;;13.48;5.78;;;32.30;56.90;;;;;;6215251;23;20362;-81
2023/08/01 08:37:31;;;;;;;14.75;5.40;;;32.20;56.60;;;;;;6215113;23;19997;-81
2023/08/01 08:39:57;;;;;;;13.25;5.50;;;32.10;56.70;;;;;;6215143;23;20004;-82
2023/08/01 08:42:22;;;;;;;15.18;5.40;;;32.10;56.60;;;;;;6215395;23;20000;-82
2023/08/01 08:44:54;;;;;;;16.23;5.30;;;32.00;56.50;;;;;;6216348;23;20005;-83
2023/08/01 08:47:25;;;;;;;18.30;5.43;;;32.00;56.50;;;;;;6217265;23;20074;-83
2023/08/01 08:49:52;;;;;;;16.98;5.82;;;31.90;56.20;;;;;;6215414;23;20009;-83
2023/08/01 08:52:19;;;;;;;12.35;4.82;;;31.90;56.20;;;;;;6214885;23;20486;-82
2023/08/01 08:54:46;;;;;;;13.52;5.05;;;31.80;55.70;;;;;;6215471;23;20031;-83
2023/08/01 08:57:12;;;;;;;13.63;5.03;;;31.80;56.00;;;;;;6215613;23;20051;-81
2023/08/01 08:59:39;;;;;;;15.27;5.32;;;31.70;55.90;;;;;;6219063;23;19997;-82
2023/08/01 09:02:06;;;;;;;17.48;4.47;;;31.70;55.80;;;;;;6215020;23;20007;-82
2023/08/01 09:04:31;;;;;;;9.90;4.70;;;31.70;55.70;;;;;;6215805;23;20005;-83
2023/08/01 09:07:06;;;;;;;13.20;5.18;;;31.60;55.70;;;;;;6216815;23;20280;-83
2023/08/01 09:09:34;;;;;;;12.80;4.63;;;31.60;55.50;;;;;;6215595;23;19997;-82
2023/08/01 09:12:00;;;;;;;15.70;4.90;;;31.60;55.50;;;;;;6216157;23;20008;-83
2023/08/01 09:14:25;;;;;;;14.48;4.70;;;31.60;55.30;;;;;;6214771;23;20023;-82
2023/08/01 09:16:52;;;;;;;13.32;4.75;;;31.50;55.00;;;;;;6215322;23;20320;-83
2023/08/01 09:19:20;;;;;;;14.00;5.20;;;31.60;55.40;;;;;;6214800;23;20084;-83
2023/08/01 09:21:47;;;;;;;15.98;5.13;;;31.60;55.40;;;;;;6215036;23;20378;-83
2023/08/01 09:24:17;;;;;;;13.88;5.15;;;31.60;55.30;;;;;;6215000;23;20001;-83
2023/08/01 09:26:44;;;;;;;13.43;5.20;;;31.60;55.10;;;;;;6214746;23;20097;-83
2023/08/01 09:29:10;;;;;;;13.05;4.93;;;31.60;54.80;;;;;;6215299;23;20449;-84
2023/08/01 09:31:40;;;;;;;13.32;5.07;;;31.60;54.60;;;;;;6214957;23;20008;-85
2023/08/01 09:34:17;;;;;;;18.05;5.25;;;31.60;53.80;;;;;;6215097;23;20063;-83
2023/08/01 09:36:43;;;;;;;14.98;5.03;;;31.60;55.00;;;;;;6188158;23;20008;-83
2023/08/01 09:39:15;;;;;;;16.10;5.18;;;31.60;55.00;;;;;;6216003;23;20011;-84
2023/08/01 09:41:40;;;;;;;11.98;4.93;;;31.60;54.80;;;;;;6214806;23;20416;-82
2023/08/01 09:44:10;;;;;;;16.17;4.93;;;31.60;54.60;;;;;;6215519;23;20088;-83
2023/08/01 09:46:35;;;;;;;11.85;4.57;;;31.70;54.70;;;;;;6215027;23;20307;-83
2023/08/01 09:49:09;;;;;;;16.02;5.10;;;31.70;54.60;;;;;;6215351;23;19996;-85
2023/08/01 09:51:47;;;;;;;15.85;4.40;;;31.70;54.60;;;;;;6217322;23;20035;-84
2023/08/01 09:54:13;;;;;;;14.18;5.35;;;31.70;54.80;;;;;;6217487;23;20005;-82
2023/08/01 09:56:40;;;;;;;14.25;4.90;;;31.70;55.10;;;;;;6215768;23;20398;-84
2023/08/01 09:59:06;;;;;;;12.77;4.60;;;31.70;55.10;;;;;;6214846;23;20000;-82
2023/08/01 10:01:33;;;;;;;14.68;4.97;;;31.80;55.00;;;;;;6214697;23;20004;-83
2023/08/01 10:03:59;;;;;;;15.90;4.85;;;31.80;54.60;;;;;;6165744;23;20060;-84
2023/08/01 10:06:31;;;;;;;9.40;4.30;;;31.80;54.40;;;;;;6185841;23;20005;-83
2023/08/01 10:08:59;;;;;;;16.20;4.10;;;31.80;54.50;;;;;;6184227;23;20004;-85
2023/08/01 10:11:26;;;;;;;13.52;4.05;;;31.80;54.10;;;;;;6184881;23;20446;-84
2023/08/01 10:13:52;;;;;;;12.05;4.25;;;31.90;53.70;;;;;;6186305;23;20012;-83
2023/08/01 10:16:18;;;;;;;13.05;4.38;;;31.90;53.40;;;;;;6186335;23;20001;-83
2023/08/01 10:18:44;;;;;;;10.82;3.78;;;32.00;53.20;;;;;;6189293;23;20080;-83
2023/08/01 10:21:16;;;;;;;17.73;4.00;;;32.00;53.20;;;;;;6185609;23;20035;-82
2023/08/01 10:23:44;;;;;;;22.73;4.88;;;32.10;53.10;;;;;;6184902;23;20005;-83
2023/08/01 10:26:11;;;;;;;11.77;4.10;;;32.10;54.20;;;;;;6183829;23;20348;-83
2023/08/01 10:28:39;;;;;;;16.50;4.18;;;32.00;54.80;;;;;;6184654;23;20048;-83
2023/08/01 10:31:07;;;;;;;18.15;5.20;;;32.00;55.60;;;;;;6185603;23;20005;-83
2023/08/01 10:33:34;;;;;;;14.02;4.30;;;32.00;55.60;;;;;;6184166;23;20013;-84
2023/08/01 10:35:59;;;;;;;18.48;4.85;;;32.00;56.00;;;;;;6184214;23;20029;-83
2023/08/01 10:38:25;;;;;;;11.90;4.47;;;32.00;56.30;;;;;;6184454;23;20324;-83
2023/08/01 10:40:51;;;;;;;14.77;4.95;;;32.00;56.60;;;;;;6184391;23;20084;-83
2023/08/01 10:43:21;;;;;;;16.38;4.22;;;32.00;56.90;;;;;;6184174;23;20058;-83
2023/08/01 10:45:46;;;;;;;15.20;4.65;;;32.00;57.20;;;;;;6184183;23;20002;-83
2023/08/01 10:48:13;;;;;;;16.55;4.43;;;32.00;57.30;;;;;;6183832;23;20080;-84
2023/08/01 10:50:39;;;;;;;14.02;4.18;;;32.00;57.40;;;;;;6184200;23;20028;-83
2023/08/01 10:53:09;;;;;;;14.50;5.00;;;32.00;57.50;;;;;;6184283;23;20047;-84
2023/08/01 10:55:40;;;;;;;11.15;4.55;;;32.10;57.50;;;;;;6184813;23;20024;-83
2023/08/01 10:58:06;;;;;;;11.80;4.30;;;32.10;57.40;;;;;;6183813;23;20300;-84
2023/08/01 11:00:32;;;;;;;19.90;4.75;;;32.10;57.60;;;;;;6183395;23;20009;-83
2023/08/01 11:02:57;;;;;;;11.23;4.03;;;32.10;57.60;;;;;;6195543;23;20162;-83
2023/08/01 11:05:25;;;;;;;20.10;4.78;;;32.20;57.10;;;;;;6187023;23;20012;-84
2023/08/01 11:07:58;;;;;;;10.45;3.88;;;32.20;57.10;;;;;;6214407;23;20334;-83
2023/08/01 11:10:28;;;;;;;14.13;4.35;;;32.30;57.30;;;;;;6213812;23;20001;-84
2023/08/01 11:12:55;;;;;;;10.70;4.53;;;32.30;57.00;;;;;;6213605;23;20067;-82
2023/08/01 11:15:21;;;;;;;14.77;3.90;;;32.30;57.20;;;;;;6214040;23;20028;-83
2023/08/01 11:17:57;;;;;;;13.88;4.10;;;32.40;57.00;;;;;;6214724;23;20108;-83
2023/08/01 11:20:25;;;;;;;21.13;4.07;;;32.30;57.00;;;;;;6214730;23;20396;-83
2023/08/01 11:22:56;;;;;;;14.40;4.30;;;32.30;56.80;;;;;;6214720;23;20026;-83
2023/08/01 11:25:45;;;;;;;12.82;4.00;;;32.30;56.90;;;;;;6214796;23;20338;-83
2023/08/01 11:28:15;;;;;;;18.17;4.10;;;32.30;57.10;;;;;;6227200;23;20027;-82
2023/08/01 11:30:42;;;;;;;11.23;4.18;;;32.30;56.40;;;;;;6198786;23;20079;-83
2023/08/01 11:33:21;;;;;;;11.48;3.60;;;32.30;56.70;;;;;;6215687;23;20040;-84
2023/08/01 11:35:52;;;;;;;15.52;4.47;;;32.30;56.30;;;;;;6216232;23;20059;-83
2023/08/01 11:38:17;;;;;;;12.40;4.20;;;32.30;55.90;;;;;;6216840;23;20264;-83
2023/08/01 11:40:43;;;;;;;11.48;4.13;;;32.40;56.20;;;;;;6216519;23;20091;-81
2023/08/01 11:43:09;;;;;;;11.75;3.80;;;32.40;56.10;;;;;;6216541;23;20076;-83
2023/08/01 11:45:35;;;;;;;13.35;3.47;;;32.40;56.50;;;;;;6216918;23;20059;-81
